Terminal Aerodrome Forecast
Issued by NWS

Home | Current Version | Previous Version | Text Only | Print | Product List | Glossary On
Versions: 1 2 3 4 5 6 7 8 9 10 11 12 13 14 15 16 17 18 19
000
FTAK31 PANC 251148
TAFADL
TAF
PADL 251148Z 2512/2612 VRB03KT P6SM VCSH SCT015 BKN035
      TEMPO 2512/2515 BKN015
     FM251500 VRB05KT 3SM BR SCT008 OVC015
     FM252000 VRB03KT 6SM BR SCT010 BKN030
     FM260000 14010KT 3SM -SN BR SCT008 OVC015
     FM260600 18010G17KT 5SM -SHSN SCT010 BKN020=

USA.gov is the U.S. government's official web portal to all federal, state and local government web resources and services.